createdAt,value
2018-09-02T00:01:39.832Z,15.27
2018-09-02T00:04:08.183Z,15.29
2018-09-02T00:06:36.155Z,15.23
2018-09-02T00:09:05.351Z,15.21
2018-09-02T00:11:33.344Z,15.21
2018-09-02T00:14:01.441Z,15.20
2018-09-02T00:16:29.572Z,15.17
2018-09-02T00:18:57.685Z,15.15
2018-09-02T00:21:25.719Z,15.13
2018-09-02T00:23:53.697Z,15.16
2018-09-02T00:26:21.651Z,15.12
2018-09-02T00:28:49.853Z,15.12
2018-09-02T00:31:17.769Z,15.13
2018-09-02T00:33:45.710Z,15.18
2018-09-02T00:36:13.821Z,15.38
2018-09-02T00:38:41.821Z,15.26
2018-09-02T00:41:09.781Z,15.17
2018-09-02T00:43:37.737Z,15.11
2018-09-02T00:46:06.123Z,15.03
2018-09-02T00:48:34.222Z,15.08
2018-09-02T00:51:02.286Z,15.03
2018-09-02T00:53:30.393Z,15.01
2018-09-02T00:55:58.380Z,14.98
2018-09-02T00:58:26.558Z,14.94
2018-09-02T01:00:54.521Z,14.97
2018-09-02T01:03:22.528Z,14.97
2018-09-02T01:05:51.215Z,14.93
2018-09-02T01:08:19.255Z,14.86
2018-09-02T01:10:48.073Z,14.81
2018-09-02T01:13:16.003Z,14.76
2018-09-02T01:15:44.329Z,14.72
2018-09-02T01:18:13.551Z,14.72
2018-09-02T01:20:41.767Z,14.68
2018-09-02T01:23:09.916Z,14.69
2018-09-02T01:25:38.621Z,14.61
2018-09-02T01:28:06.977Z,14.57
2018-09-02T01:30:35.013Z,14.54
2018-09-02T01:33:03.154Z,14.55
2018-09-02T01:35:34.315Z,14.53
2018-09-02T01:38:04.667Z,14.47
2018-09-02T01:40:33.620Z,14.42
2018-09-02T01:43:01.727Z,14.37
2018-09-02T01:45:29.981Z,14.37
2018-09-02T01:47:58.080Z,14.31
2018-09-02T01:50:26.175Z,14.31
2018-09-02T01:52:54.250Z,14.23
2018-09-02T01:55:22.438Z,14.25
2018-09-02T01:57:50.589Z,14.25
2018-09-02T02:00:18.851Z,14.21
2018-09-02T02:02:47.675Z,14.16
2018-09-02T02:05:15.743Z,14.17
2018-09-02T02:07:43.759Z,14.16
2018-09-02T02:10:12.012Z,14.13
2018-09-02T02:12:40.215Z,14.12
2018-09-02T02:15:08.445Z,14.06
2018-09-02T02:17:37.093Z,14.04
2018-09-02T02:20:05.288Z,14.01
2018-09-02T02:22:33.868Z,14.02
2018-09-02T02:25:02.279Z,13.96
2018-09-02T02:27:30.527Z,13.91
2018-09-02T02:29:58.970Z,13.89
2018-09-02T02:32:27.020Z,13.82
2018-09-02T02:34:55.342Z,13.81
2018-09-02T02:37:23.482Z,13.85
2018-09-02T02:39:51.659Z,13.86
2018-09-02T02:42:19.758Z,13.83
2018-09-02T02:44:47.888Z,13.87
2018-09-02T02:47:15.990Z,13.84
2018-09-02T02:49:44.221Z,13.91
2018-09-02T02:52:12.382Z,13.84
2018-09-02T02:54:40.485Z,13.82
2018-09-02T02:57:08.602Z,13.78
2018-09-02T02:59:36.901Z,13.83
2018-09-02T03:02:05.101Z,13.81
2018-09-02T03:04:33.207Z,13.78
2018-09-02T03:07:01.225Z,13.78
2018-09-02T03:09:29.436Z,13.75
2018-09-02T03:11:57.616Z,13.70
2018-09-02T03:14:25.666Z,13.61
2018-09-02T03:16:53.780Z,13.64
2018-09-02T03:19:22.078Z,13.61
2018-09-02T03:21:50.312Z,13.58
2018-09-02T03:24:18.417Z,13.59
2018-09-02T03:26:46.588Z,13.56
2018-09-02T03:29:14.924Z,13.46
2018-09-02T03:31:43.262Z,13.46
2018-09-02T03:34:11.698Z,13.35
2018-09-02T03:36:40.048Z,13.33
2018-09-02T03:39:08.182Z,13.26
2018-09-02T03:41:36.458Z,13.23
2018-09-02T03:44:04.822Z,13.27
2018-09-02T03:46:32.892Z,13.25
2018-09-02T03:49:01.040Z,13.32
2018-09-02T03:51:29.184Z,13.22
2018-09-02T03:53:57.737Z,13.33
2018-09-02T03:56:25.873Z,13.27
2018-09-02T03:58:54.351Z,13.22
2018-09-02T04:01:22.479Z,13.27
2018-09-02T04:03:50.591Z,13.31
2018-09-02T04:06:18.634Z,13.32
2018-09-02T04:08:46.700Z,13.35
2018-09-02T04:11:14.779Z,13.40
2018-09-02T04:13:43.023Z,13.55
2018-09-02T04:16:11.138Z,13.91
2018-09-02T04:18:39.247Z,14.30
2018-09-02T04:21:07.330Z,14.62
2018-09-02T04:23:35.416Z,15.10
2018-09-02T04:26:03.912Z,15.65
2018-09-02T04:28:32.158Z,16.01
2018-09-02T04:31:00.464Z,16.49
2018-09-02T04:33:29.044Z,16.60
2018-09-02T04:35:57.372Z,17.21
2018-09-02T04:38:25.622Z,17.36
2018-09-02T04:40:53.811Z,17.56
2018-09-02T04:43:22.273Z,17.92
2018-09-02T04:45:50.663Z,18.07
2018-09-02T04:48:18.951Z,18.69
2018-09-02T04:50:47.080Z,18.95
2018-09-02T04:53:15.276Z,19.23
2018-09-02T04:55:43.619Z,19.66
2018-09-02T04:58:11.784Z,20.07
2018-09-02T05:00:39.980Z,19.98
2018-09-02T05:03:08.305Z,19.60
2018-09-02T05:05:36.639Z,20.14
2018-09-02T05:08:05.108Z,20.03
2018-09-02T05:10:33.399Z,19.82
2018-09-02T05:13:01.772Z,19.69
2018-09-02T05:15:29.902Z,19.85
2018-09-02T05:17:58.401Z,19.51
2018-09-02T05:20:26.684Z,19.55
2018-09-02T05:22:54.921Z,19.60
2018-09-02T05:25:23.018Z,19.58
2018-09-02T05:27:51.118Z,19.61
2018-09-02T05:30:19.645Z,19.72
2018-09-02T05:32:48.046Z,19.99
2018-09-02T05:35:16.252Z,19.94
2018-09-02T05:37:44.384Z,20.00
2018-09-02T05:40:12.637Z,20.27
2018-09-02T05:42:40.647Z,20.46
2018-09-02T05:45:08.815Z,20.48
2018-09-02T05:47:37.014Z,20.66
2018-09-02T05:50:05.761Z,20.62
2018-09-02T05:52:33.997Z,20.80
2018-09-02T05:55:02.542Z,20.35
2018-09-02T05:57:30.918Z,20.57
2018-09-02T05:59:59.271Z,20.99
2018-09-02T06:02:27.602Z,21.28
2018-09-02T06:04:55.712Z,21.03
2018-09-02T06:07:23.811Z,20.87
2018-09-02T06:09:52.243Z,20.71
2018-09-02T06:12:20.405Z,20.25
2018-09-02T06:14:48.546Z,20.35
2018-09-02T06:17:16.913Z,20.36
2018-09-02T06:19:48.147Z,20.91
2018-09-02T06:22:16.235Z,21.05
2018-09-02T06:24:45.230Z,21.21
2018-09-02T06:27:13.524Z,21.22
2018-09-02T06:29:42.918Z,20.86
2018-09-02T06:32:11.075Z,21.14
2018-09-02T06:34:39.224Z,21.93
2018-09-02T06:37:07.286Z,22.22
2018-09-02T06:39:40.347Z,22.40
2018-09-02T06:42:09.117Z,22.46
2018-09-02T06:44:38.002Z,22.47
2018-09-02T06:47:07.475Z,22.29
2018-09-02T06:49:36.200Z,21.98
2018-09-02T06:52:05.394Z,22.18
2018-09-02T06:54:33.941Z,22.29
2018-09-02T06:57:02.690Z,22.41
2018-09-02T06:59:42.716Z,22.55
2018-09-02T07:02:11.603Z,22.29
2018-09-02T07:04:40.829Z,22.54
2018-09-02T07:07:14.951Z,22.63
2018-09-02T07:09:46.036Z,22.87
2018-09-02T07:12:14.689Z,22.93
2018-09-02T07:14:46.483Z,22.78
2018-09-02T07:17:15.525Z,22.91
2018-09-02T07:19:45.164Z,23.23
2018-09-02T07:22:14.265Z,23.52
2018-09-02T07:24:43.111Z,23.70
2018-09-02T07:27:11.749Z,23.69
2018-09-02T07:29:40.615Z,23.56
2018-09-02T07:32:09.291Z,23.74
2018-09-02T07:34:38.116Z,24.05
2018-09-02T07:37:15.546Z,24.27
2018-09-02T07:39:44.483Z,24.43
2018-09-02T07:42:14.346Z,25.01
2018-09-02T07:44:43.110Z,24.87
2018-09-02T07:47:11.575Z,25.07
2018-09-02T07:49:41.069Z,24.84
2018-09-02T07:52:09.385Z,25.42
2018-09-02T07:54:38.132Z,25.36
2018-09-02T07:57:06.463Z,25.38
2018-09-02T07:59:36.043Z,25.14
2018-09-02T08:02:04.449Z,25.86
2018-09-02T08:04:33.347Z,25.92
2018-09-02T08:07:02.078Z,26.17
2018-09-02T08:09:30.867Z,26.10
2018-09-02T08:11:59.500Z,26.01
2018-09-02T08:14:28.029Z,26.18
2018-09-02T08:16:56.482Z,26.63
2018-09-02T08:19:25.708Z,26.87
2018-09-02T08:21:55.992Z,26.77
2018-09-02T08:24:25.029Z,27.10
2018-09-02T08:26:53.595Z,27.16
2018-09-02T08:29:25.610Z,27.23
2018-09-02T08:31:54.090Z,27.14
2018-09-02T08:34:22.315Z,27.01
2018-09-02T08:36:52.784Z,27.13
2018-09-02T08:39:21.100Z,26.67
2018-09-02T08:41:49.359Z,26.50
2018-09-02T08:44:17.775Z,26.60
2018-09-02T08:46:46.132Z,26.95
2018-09-02T08:49:14.430Z,26.98
2018-09-02T08:51:42.679Z,27.58
2018-09-02T08:54:10.853Z,27.46
2018-09-02T08:56:39.288Z,27.58
2018-09-02T08:59:07.512Z,27.45
2018-09-02T09:01:35.846Z,27.34
2018-09-02T09:04:04.084Z,27.35
2018-09-02T09:06:32.358Z,27.88
2018-09-02T09:09:00.787Z,28.57
2018-09-02T09:11:29.057Z,28.66
2018-09-02T09:13:57.829Z,28.40
2018-09-02T09:16:26.550Z,28.65
2018-09-02T09:18:55.826Z,28.82
2018-09-02T09:21:26.660Z,28.96
2018-09-02T09:23:55.534Z,29.10
2018-09-02T09:26:23.981Z,28.89
2018-09-02T09:28:52.402Z,28.87
2018-09-02T09:31:20.797Z,28.85
2018-09-02T09:33:49.054Z,29.03
2018-09-02T09:36:20.640Z,29.35
2018-09-02T09:38:49.690Z,29.68
2018-09-02T09:41:18.106Z,29.89
2018-09-02T09:43:46.235Z,30.05
2018-09-02T09:46:15.496Z,29.55
2018-09-02T09:48:44.073Z,29.43
2018-09-02T09:51:14.237Z,29.62
2018-09-02T09:53:42.757Z,29.61
2018-09-02T09:56:11.847Z,29.89
2018-09-02T09:58:40.139Z,30.06
2018-09-02T10:01:15.512Z,30.20
2018-09-02T10:03:43.743Z,30.36
2018-09-02T10:06:11.933Z,31.00
2018-09-02T10:08:40.196Z,31.11
2018-09-02T10:11:10.682Z,31.28
2018-09-02T10:13:38.828Z,31.43
2018-09-02T10:16:07.274Z,31.03
2018-09-02T10:18:36.664Z,30.76
2018-09-02T10:21:05.607Z,30.55
2018-09-02T10:23:33.789Z,30.05
2018-09-02T10:26:02.058Z,30.06
2018-09-02T10:28:30.210Z,30.05
2018-09-02T10:30:58.553Z,30.21
2018-09-02T10:33:26.944Z,29.92
2018-09-02T10:35:55.104Z,30.01
2018-09-02T10:38:23.281Z,30.32
2018-09-02T10:40:51.463Z,30.04
2018-09-02T10:43:20.552Z,30.07
2018-09-02T10:45:48.805Z,29.98
2018-09-02T10:48:17.143Z,30.40
2018-09-02T10:50:51.530Z,30.17
2018-09-02T10:53:19.793Z,29.82
2018-09-02T10:55:47.969Z,29.89
2018-09-02T10:58:16.549Z,29.82
2018-09-02T11:00:44.969Z,29.93
2018-09-02T11:03:13.569Z,30.12
2018-09-02T11:05:41.751Z,30.10
2018-09-02T11:08:09.995Z,30.36
2018-09-02T11:10:38.398Z,30.06
2018-09-02T11:13:06.899Z,30.14
2018-09-02T11:15:35.360Z,29.77
2018-09-02T11:18:04.700Z,30.12
2018-09-02T11:20:33.328Z,30.34
2018-09-02T11:23:01.624Z,30.25
2018-09-02T11:25:30.036Z,30.25
2018-09-02T11:27:59.304Z,30.00
2018-09-02T11:30:27.889Z,30.09
2018-09-02T11:32:56.325Z,30.09
2018-09-02T11:35:24.940Z,30.31
2018-09-02T11:37:53.240Z,30.12
2018-09-02T11:40:26.996Z,30.14
2018-09-02T11:42:55.270Z,29.96
2018-09-02T11:45:23.536Z,29.92
2018-09-02T11:47:52.232Z,30.02
2018-09-02T11:50:20.533Z,30.39
2018-09-02T11:52:49.735Z,29.98
2018-09-02T11:55:18.894Z,29.63
2018-09-02T11:57:47.412Z,29.96
2018-09-02T12:00:15.951Z,30.19
2018-09-02T12:02:44.485Z,29.89
2018-09-02T12:05:13.113Z,30.12
2018-09-02T12:07:41.332Z,29.83
2018-09-02T12:10:10.058Z,29.82
2018-09-02T12:12:38.507Z,30.02
2018-09-02T12:15:07.058Z,29.84
2018-09-02T12:17:35.982Z,29.78
2018-09-02T12:20:08.298Z,29.91
2018-09-02T12:22:36.566Z,30.15
2018-09-02T12:25:05.073Z,29.83
2018-09-02T12:27:33.364Z,29.70
2018-09-02T12:30:01.913Z,29.54
2018-09-02T12:32:30.299Z,29.48
2018-09-02T12:34:59.112Z,29.62
2018-09-02T12:37:27.367Z,29.64
2018-09-02T12:39:55.691Z,29.66
2018-09-02T12:42:23.954Z,29.58
2018-09-02T12:44:52.308Z,29.53
2018-09-02T12:47:20.448Z,29.54
2018-09-02T12:49:52.077Z,29.48
2018-09-02T12:52:22.242Z,29.46
2018-09-02T12:54:51.019Z,29.42
2018-09-02T12:57:19.325Z,29.35
2018-09-02T12:59:52.045Z,29.34
2018-09-02T13:02:20.531Z,29.56
2018-09-02T13:04:48.662Z,29.60
2018-09-02T13:07:16.855Z,29.54
2018-09-02T13:09:45.377Z,29.65
2018-09-02T13:12:15.403Z,29.42
2018-09-02T13:14:43.751Z,29.45
2018-09-02T13:17:11.997Z,29.50
2018-09-02T13:19:40.098Z,29.66
2018-09-02T13:22:10.278Z,29.58
2018-09-02T13:24:38.640Z,29.57
2018-09-02T13:27:06.911Z,29.32
2018-09-02T13:29:36.889Z,29.24
2018-09-02T13:32:05.252Z,29.28
2018-09-02T13:34:34.727Z,29.26
2018-09-02T13:37:03.002Z,29.32
2018-09-02T13:39:34.568Z,29.18
2018-09-02T13:42:03.148Z,29.18
2018-09-02T13:44:33.660Z,29.15
2018-09-02T13:47:02.216Z,29.07
2018-09-02T13:49:30.386Z,29.14
2018-09-02T13:51:58.777Z,29.13
2018-09-02T13:54:26.947Z,29.27
2018-09-02T13:56:54.993Z,29.22
2018-09-02T13:59:23.222Z,29.12
2018-09-02T14:01:51.564Z,29.14
2018-09-02T14:04:19.852Z,29.07
2018-09-02T14:06:48.031Z,29.05
2018-09-02T14:09:16.452Z,28.92
2018-09-02T14:11:44.845Z,28.91
2018-09-02T14:14:13.126Z,28.79
2018-09-02T14:16:41.291Z,28.87
2018-09-02T14:19:09.632Z,28.76
2018-09-02T14:21:37.917Z,28.75
2018-09-02T14:24:06.988Z,28.75
2018-09-02T14:26:35.330Z,28.68
2018-09-02T14:29:03.812Z,28.64
2018-09-02T14:31:32.204Z,28.59
2018-09-02T14:34:00.464Z,28.51
2018-09-02T14:36:28.762Z,28.55
2018-09-02T14:38:57.084Z,28.42
2018-09-02T14:41:25.433Z,28.45
2018-09-02T14:43:54.398Z,28.46
2018-09-02T14:46:22.599Z,28.46
2018-09-02T14:48:50.942Z,28.37
2018-09-02T14:51:19.364Z,28.36
2018-09-02T14:53:47.589Z,28.24
2018-09-02T14:56:15.837Z,28.24
2018-09-02T14:58:43.996Z,28.23
2018-09-02T15:01:12.221Z,28.12
2018-09-02T15:03:40.358Z,28.10
2018-09-02T15:06:08.589Z,28.06
2018-09-02T15:08:36.713Z,28.06
2018-09-02T15:11:04.983Z,28.07
2018-09-02T15:13:34.072Z,27.99
2018-09-02T15:16:02.359Z,27.92
2018-09-02T15:18:30.720Z,27.91
2018-09-02T15:20:59.057Z,27.91
2018-09-02T15:23:27.238Z,27.82
2018-09-02T15:25:55.444Z,27.81
2018-09-02T15:28:23.841Z,27.74
2018-09-02T15:30:52.059Z,27.60
2018-09-02T15:33:20.133Z,27.68
2018-09-02T15:35:48.506Z,27.59
2018-09-02T15:38:16.824Z,27.54
2018-09-02T15:40:45.131Z,27.44
2018-09-02T15:43:13.323Z,27.39
2018-09-02T15:45:41.750Z,27.07
2018-09-02T15:48:09.970Z,27.21
2018-09-02T15:50:38.260Z,27.07
2018-09-02T15:53:06.645Z,27.04
2018-09-02T15:55:34.726Z,27.13
2018-09-02T15:58:02.937Z,27.03
2018-09-02T16:00:31.215Z,26.95
2018-09-02T16:02:59.462Z,26.64
2018-09-02T16:05:29.705Z,26.54
2018-09-02T16:07:57.927Z,26.44
2018-09-02T16:10:26.145Z,26.21
2018-09-02T16:12:54.520Z,26.20
2018-09-02T16:15:22.950Z,25.90
2018-09-02T16:17:52.285Z,25.65
2018-09-02T16:20:20.718Z,25.27
2018-09-02T16:22:50.972Z,24.88
2018-09-02T16:25:23.372Z,24.60
2018-09-02T16:27:51.642Z,24.36
2018-09-02T16:30:21.821Z,23.97
2018-09-02T16:32:50.195Z,23.65
2018-09-02T16:35:18.444Z,23.56
2018-09-02T16:37:46.697Z,23.28
2018-09-02T16:40:14.789Z,23.13
2018-09-02T16:42:43.030Z,22.98
2018-09-02T16:45:11.380Z,22.90
2018-09-02T16:47:39.697Z,22.59
2018-09-02T16:50:08.124Z,22.45
2018-09-02T16:52:36.361Z,22.52
2018-09-02T16:55:04.767Z,22.51
2018-09-02T16:57:34.470Z,22.31
2018-09-02T17:00:04.097Z,22.47
2018-09-02T17:02:32.342Z,22.30
2018-09-02T17:05:06.112Z,22.05
2018-09-02T17:07:35.055Z,21.82
2018-09-02T17:10:04.872Z,21.62
2018-09-02T17:12:33.594Z,21.54
2018-09-02T17:17:29.475Z,21.33
2018-09-02T17:19:58.940Z,21.15
2018-09-02T17:22:27.269Z,21.02
2018-09-02T17:24:56.016Z,20.96
2018-09-02T17:27:24.620Z,20.86
2018-09-02T17:29:53.151Z,20.61
2018-09-02T17:32:23.046Z,20.62
2018-09-02T17:34:51.489Z,20.75
2018-09-02T17:37:19.800Z,20.73
2018-09-02T17:39:48.076Z,20.74
2018-09-02T17:42:16.445Z,20.75
2018-09-02T17:44:44.651Z,20.73
2018-09-02T17:47:12.892Z,21.11
2018-09-02T17:49:41.036Z,21.17
2018-09-02T17:52:09.377Z,20.83
2018-09-02T17:54:37.904Z,20.80
2018-09-02T17:57:06.074Z,20.70
2018-09-02T17:59:34.308Z,20.69
2018-09-02T18:02:03.006Z,20.57
2018-09-02T18:04:31.350Z,20.67
2018-09-02T18:06:59.628Z,20.62
2018-09-02T18:09:27.850Z,20.50
2018-09-02T18:11:56.050Z,20.65
2018-09-02T18:14:24.259Z,20.70
2018-09-02T18:16:52.545Z,20.56
2018-09-02T18:19:20.910Z,20.57
2018-09-02T18:21:49.209Z,20.37
2018-09-02T18:24:17.417Z,20.25
2018-09-02T18:26:45.713Z,20.22
2018-09-02T18:29:13.968Z,20.18
2018-09-02T18:31:42.231Z,20.41
2018-09-02T18:34:10.858Z,20.29
2018-09-02T18:36:40.519Z,20.11
2018-09-02T18:39:12.933Z,19.98
2018-09-02T18:41:41.607Z,19.90
2018-09-02T18:44:10.046Z,19.75
2018-09-02T18:46:40.626Z,19.57
2018-09-02T18:49:09.994Z,19.52
2018-09-02T18:51:38.486Z,19.57
2018-09-02T18:54:07.124Z,19.43
2018-09-02T18:56:35.711Z,19.37
2018-09-02T18:59:05.361Z,19.36
2018-09-02T19:01:35.197Z,19.39
2018-09-02T19:04:08.540Z,19.29
2018-09-02T19:06:37.582Z,19.19
2018-09-02T19:09:07.535Z,19.20
2018-09-02T19:11:35.704Z,19.29
2018-09-02T19:14:05.212Z,19.95
2018-09-02T19:16:33.563Z,19.72
2018-09-02T19:19:02.063Z,19.62
2018-09-02T19:21:30.368Z,19.35
2018-09-02T19:23:58.728Z,19.32
2018-09-02T19:26:26.978Z,19.32
2018-09-02T19:28:55.221Z,19.27
2018-09-02T19:31:23.506Z,19.21
2018-09-02T19:33:51.873Z,19.02
2018-09-02T19:36:20.256Z,18.84
2018-09-02T19:38:48.764Z,18.82
2018-09-02T19:41:17.405Z,18.73
2018-09-02T19:43:45.806Z,18.69
2018-09-02T19:46:14.030Z,18.68
2018-09-02T19:48:42.536Z,18.59
2018-09-02T19:51:10.654Z,18.54
2018-09-02T19:53:38.865Z,18.47
2018-09-02T19:56:06.941Z,18.40
2018-09-02T19:58:34.992Z,18.43
2018-09-02T20:01:03.400Z,18.40
2018-09-02T20:03:31.571Z,18.53
2018-09-02T20:05:59.876Z,18.53
2018-09-02T20:08:28.105Z,18.44
2018-09-02T20:10:56.336Z,18.36
2018-09-02T20:13:24.417Z,18.27
2018-09-02T20:15:52.733Z,18.21
2018-09-02T20:18:21.169Z,18.16
2018-09-02T20:20:49.720Z,18.10
2018-09-02T20:23:18.065Z,18.18
2018-09-02T20:25:46.358Z,18.08
2018-09-02T20:28:14.548Z,18.02
2018-09-02T20:30:42.789Z,18.00
2018-09-02T20:33:11.053Z,17.92
2018-09-02T20:35:39.440Z,17.86
2018-09-02T20:38:07.609Z,17.82
2018-09-02T20:40:35.720Z,17.81
2018-09-02T20:43:03.848Z,17.74
2018-09-02T20:45:32.089Z,17.72
2018-09-02T20:48:00.322Z,17.65
2018-09-02T20:50:28.543Z,17.59
2018-09-02T20:52:56.819Z,17.63
2018-09-02T20:55:26.080Z,17.64
2018-09-02T20:57:54.401Z,17.49
2018-09-02T21:00:22.677Z,17.37
2018-09-02T21:02:50.892Z,17.42
2018-09-02T21:05:19.083Z,17.48
2018-09-02T21:07:47.185Z,17.44
2018-09-02T21:10:15.294Z,17.49
2018-09-02T21:12:43.454Z,17.40
2018-09-02T21:15:11.694Z,17.37
2018-09-02T21:17:39.861Z,17.32
2018-09-02T21:20:08.147Z,17.29
2018-09-02T21:22:36.184Z,17.30
2018-09-02T21:25:04.385Z,17.20
2018-09-02T21:27:32.628Z,17.11
2018-09-02T21:30:00.779Z,17.09
2018-09-02T21:32:28.956Z,17.01
2018-09-02T21:34:57.169Z,17.01
2018-09-02T21:37:25.276Z,17.00
2018-09-02T21:39:53.396Z,16.95
2018-09-02T21:42:21.628Z,16.87
2018-09-02T21:44:49.721Z,16.89
2018-09-02T21:47:17.998Z,16.75
2018-09-02T21:49:46.530Z,16.77
2018-09-02T21:52:15.035Z,16.80
2018-09-02T21:54:43.529Z,16.86
2018-09-02T21:57:11.590Z,16.81
2018-09-02T21:59:39.833Z,16.72
2018-09-02T22:02:08.161Z,16.73
2018-09-02T22:04:36.491Z,16.70
2018-09-02T22:07:05.048Z,16.67
2018-09-02T22:09:33.273Z,16.63
2018-09-02T22:12:01.624Z,16.58
2018-09-02T22:14:29.841Z,16.56
2018-09-02T22:16:57.972Z,16.51
2018-09-02T22:19:26.403Z,16.51
2018-09-02T22:21:54.647Z,16.55
2018-09-02T22:24:22.915Z,16.53
2018-09-02T22:26:51.053Z,16.52
2018-09-02T22:29:19.444Z,16.54
2018-09-02T22:31:47.853Z,16.49
2018-09-02T22:34:15.960Z,16.47
2018-09-02T22:36:44.270Z,16.50
2018-09-02T22:39:12.482Z,16.45
2018-09-02T22:41:40.773Z,16.40
2018-09-02T22:44:09.079Z,16.36
2018-09-02T22:46:37.226Z,16.36
2018-09-02T22:49:05.319Z,16.33
2018-09-02T22:51:33.409Z,16.34
2018-09-02T22:54:01.451Z,16.28
2018-09-02T22:56:30.058Z,16.24
2018-09-02T22:58:58.242Z,16.27
2018-09-02T23:01:26.351Z,16.57
2018-09-02T23:03:54.387Z,16.37
2018-09-02T23:06:22.410Z,16.20
2018-09-02T23:08:50.459Z,16.14
2018-09-02T23:11:18.606Z,16.11
2018-09-02T23:13:46.597Z,16.03
2018-09-02T23:16:14.760Z,16.03
2018-09-02T23:18:42.836Z,15.95
2018-09-02T23:21:10.870Z,15.91
2018-09-02T23:23:39.146Z,15.90
2018-09-02T23:26:07.329Z,15.89
2018-09-02T23:28:35.469Z,15.89
2018-09-02T23:31:03.666Z,15.90
2018-09-02T23:33:31.791Z,15.88
2018-09-02T23:35:59.814Z,15.84
2018-09-02T23:38:27.831Z,15.83
2018-09-02T23:40:55.927Z,15.79
2018-09-02T23:43:24.103Z,15.77
2018-09-02T23:45:52.276Z,15.80
2018-09-02T23:48:20.393Z,15.88
2018-09-02T23:50:48.527Z,15.80
2018-09-02T23:53:16.782Z,15.72
2018-09-02T23:55:44.839Z,15.70
2018-09-02T23:58:12.883Z,15.71
